createdAt,value
2019-02-15T00:01:42.682Z,42.20
2019-02-15T00:04:14.008Z,44.70
2019-02-15T00:06:44.251Z,47.03
2019-02-15T00:09:14.774Z,51.20
2019-02-15T00:11:45.092Z,47.43
2019-02-15T00:14:15.338Z,48.97
2019-02-15T00:16:45.582Z,52.53
2019-02-15T00:19:20.384Z,53.23
2019-02-15T00:21:50.631Z,53.57
2019-02-15T00:24:20.884Z,50.10
2019-02-15T00:26:51.492Z,46.90
2019-02-15T00:29:21.741Z,45.27
2019-02-15T00:31:51.995Z,47.47
2019-02-15T00:34:22.237Z,44.60
2019-02-15T00:36:52.486Z,43.97
2019-02-15T00:39:22.732Z,44.50
2019-02-15T00:41:53.050Z,44.47
2019-02-15T00:44:23.303Z,41.33
2019-02-15T00:46:57.835Z,36.17
2019-02-15T00:49:30.694Z,39.23
2019-02-15T00:52:14.470Z,38.73
2019-02-15T00:54:52.253Z,32.67
2019-02-15T00:57:27.181Z,31.87
2019-02-15T01:00:14.134Z,35.80
2019-02-15T01:02:46.024Z,35.47
2019-02-15T01:05:20.600Z,36.03
2019-02-15T01:07:52.480Z,32.03
2019-02-15T01:10:24.365Z,35.37
2019-02-15T01:12:59.191Z,32.30
2019-02-15T01:15:29.441Z,36.73
2019-02-15T01:17:59.685Z,35.27
2019-02-15T01:20:29.933Z,41.17
2019-02-15T01:23:00.185Z,40.03
2019-02-15T01:25:32.064Z,36.43
2019-02-15T01:28:09.703Z,39.67
2019-02-15T01:30:57.391Z,44.00
2019-02-15T01:33:45.599Z,42.97
2019-02-15T01:36:20.661Z,35.90
2019-02-15T01:38:55.504Z,36.37
2019-02-15T01:41:27.397Z,43.07
2019-02-15T01:43:59.286Z,41.00
2019-02-15T01:46:40.563Z,43.80
2019-02-15T01:49:10.809Z,43.37
2019-02-15T01:51:41.069Z,38.03
2019-02-15T01:54:11.306Z,38.73
2019-02-15T01:56:41.560Z,45.67
2019-02-15T01:59:11.804Z,36.77
2019-02-15T02:01:42.053Z,34.87
2019-02-15T02:04:12.307Z,34.93
2019-02-15T02:06:42.652Z,36.90
2019-02-15T02:09:12.969Z,44.47
2019-02-15T02:11:43.693Z,31.53
2019-02-15T02:14:13.934Z,45.90
2019-02-15T02:16:44.182Z,40.03
2019-02-15T02:19:14.436Z,41.70
2019-02-15T02:21:44.682Z,44.73
2019-02-15T02:24:14.937Z,37.33
2019-02-15T02:26:45.181Z,38.70
2019-02-15T02:29:15.424Z,41.43
2019-02-15T02:31:45.679Z,35.77
2019-02-15T02:34:15.925Z,38.20
2019-02-15T02:36:54.272Z,35.43
2019-02-15T02:39:24.506Z,42.40
2019-02-15T02:41:54.758Z,35.77
2019-02-15T02:44:25.004Z,37.00
2019-02-15T02:46:55.253Z,43.03
2019-02-15T02:49:25.513Z,33.93
2019-02-15T02:51:55.750Z,40.30
2019-02-15T02:54:25.994Z,39.53
2019-02-15T02:56:56.243Z,39.17
2019-02-15T02:59:26.557Z,39.87
2019-02-15T03:01:57.069Z,37.17
2019-02-15T03:04:27.314Z,34.80
2019-02-15T03:06:58.739Z,32.47
2019-02-15T03:09:28.980Z,41.80
2019-02-15T03:11:59.239Z,39.40
2019-02-15T03:14:29.307Z,37.53
2019-02-15T03:16:59.564Z,41.77
2019-02-15T03:19:29.804Z,34.67
2019-02-15T03:22:00.053Z,36.60
2019-02-15T03:24:30.301Z,41.73
2019-02-15T03:27:00.643Z,37.97
2019-02-15T03:29:30.877Z,44.23
2019-02-15T03:32:01.128Z,38.00
2019-02-15T03:34:31.374Z,43.27
2019-02-15T03:37:09.393Z,39.37
2019-02-15T03:39:41.332Z,43.03
2019-02-15T03:42:13.299Z,36.87
2019-02-15T03:44:43.542Z,45.87
2019-02-15T03:47:16.505Z,48.27
2019-02-15T03:49:46.758Z,52.40
2019-02-15T03:52:17.009Z,61.80
2019-02-15T03:54:47.257Z,70.13
2019-02-15T03:57:17.503Z,64.03
2019-02-15T03:59:47.745Z,50.20
2019-02-15T04:02:17.999Z,49.43
2019-02-15T04:04:48.245Z,53.03
2019-02-15T04:07:18.498Z,48.60
2019-02-15T04:09:48.751Z,51.43
2019-02-15T04:12:19.004Z,45.10
2019-02-15T04:14:49.254Z,46.03
2019-02-15T04:17:19.502Z,53.37
2019-02-15T04:19:49.758Z,56.37
2019-02-15T04:22:20.011Z,53.63
2019-02-15T04:24:50.267Z,52.30
2019-02-15T04:27:20.499Z,46.70
2019-02-15T04:29:50.741Z,48.70
2019-02-15T04:32:21.260Z,58.10
2019-02-15T04:34:51.509Z,61.17
2019-02-15T04:37:21.757Z,55.53
2019-02-15T04:39:52.573Z,57.53
2019-02-15T04:42:22.818Z,48.87
2019-02-15T04:44:53.068Z,58.97
2019-02-15T04:47:23.318Z,56.47
2019-02-15T04:49:53.566Z,50.17
2019-02-15T04:52:23.818Z,51.10
2019-02-15T04:54:54.060Z,40.97
2019-02-15T04:57:24.310Z,41.50
2019-02-15T04:59:54.559Z,37.97
2019-02-15T05:02:24.815Z,38.70
2019-02-15T05:04:55.072Z,39.37
2019-02-15T05:07:25.318Z,47.03
2019-02-15T05:09:55.568Z,40.03
2019-02-15T05:12:27.008Z,45.23
2019-02-15T05:14:57.256Z,38.13
2019-02-15T05:17:27.533Z,37.60
2019-02-15T05:19:57.771Z,41.90
2019-02-15T05:22:28.017Z,41.63
2019-02-15T05:24:58.263Z,54.57
2019-02-15T05:27:28.528Z,55.63
2019-02-15T05:29:58.773Z,66.70
2019-02-15T05:32:29.038Z,71.70
2019-02-15T05:34:59.288Z,69.10
2019-02-15T05:37:29.531Z,71.93
2019-02-15T05:39:59.778Z,71.00
2019-02-15T05:42:30.031Z,73.10
2019-02-15T05:45:03.682Z,70.07
2019-02-15T05:47:32.339Z,66.17
2019-02-15T05:50:02.619Z,72.83
2019-02-15T05:52:32.858Z,66.90
2019-02-15T05:55:03.410Z,60.53
2019-02-15T05:57:33.648Z,61.57
2019-02-15T06:00:04.175Z,63.10
2019-02-15T06:02:34.432Z,50.73
2019-02-15T06:05:07.325Z,46.07
2019-02-15T06:07:38.452Z,49.50
2019-02-15T06:10:09.088Z,54.53
2019-02-15T06:12:39.332Z,52.73
2019-02-15T06:15:15.089Z,50.37
2019-02-15T06:17:41.559Z,46.90
2019-02-15T06:20:11.834Z,50.47
2019-02-15T06:22:42.092Z,53.07
2019-02-15T06:25:12.720Z,46.80
2019-02-15T06:27:42.987Z,54.30
2019-02-15T06:30:13.262Z,51.53
2019-02-15T06:32:43.516Z,47.83
2019-02-15T06:35:13.796Z,50.40
2019-02-15T06:37:44.453Z,48.70
2019-02-15T06:40:14.700Z,48.07
2019-02-15T06:42:45.040Z,44.20
2019-02-15T06:45:24.315Z,54.20
2019-02-15T06:47:48.328Z,57.47
2019-02-15T06:50:18.579Z,57.80
2019-02-15T06:52:48.870Z,57.07
2019-02-15T06:55:19.104Z,69.70
2019-02-15T06:57:49.368Z,74.60
2019-02-15T07:00:23.938Z,84.00
2019-02-15T07:02:55.948Z,74.60
2019-02-15T07:05:25.969Z,75.43
2019-02-15T07:07:56.246Z,68.53
2019-02-15T07:10:26.506Z,79.23
2019-02-15T07:12:56.785Z,68.03
2019-02-15T07:15:33.728Z,62.60
2019-02-15T07:18:07.850Z,62.60
2019-02-15T07:20:41.845Z,58.97
2019-02-15T07:23:13.726Z,64.73
2019-02-15T07:25:46.817Z,62.03
2019-02-15T07:28:17.074Z,62.60
2019-02-15T07:30:47.325Z,55.83
2019-02-15T07:33:17.596Z,49.75
2019-02-15T07:35:48.168Z,52.27
2019-02-15T07:38:18.600Z,60.75
2019-02-15T07:40:50.132Z,49.80
2019-02-15T07:43:20.392Z,48.50
2019-02-15T07:45:51.818Z,46.85
2019-02-15T07:48:22.113Z,50.35
2019-02-15T07:50:54.395Z,57.75
2019-02-15T07:53:24.329Z,45.58
2019-02-15T07:55:54.613Z,46.30
2019-02-15T07:58:24.880Z,43.70
2019-02-15T08:00:55.131Z,42.13
2019-02-15T08:03:25.410Z,39.55
2019-02-15T08:05:55.674Z,40.83
2019-02-15T08:08:25.934Z,37.42
2019-02-15T08:10:56.201Z,40.25
2019-02-15T08:13:26.479Z,48.00
2019-02-15T08:15:56.760Z,39.63
2019-02-15T08:18:27.008Z,41.48
2019-02-15T08:20:57.275Z,40.10
2019-02-15T08:23:27.537Z,38.53
2019-02-15T08:25:57.814Z,37.80
2019-02-15T08:28:28.084Z,34.92
2019-02-15T08:30:58.372Z,34.25
2019-02-15T08:33:28.716Z,36.10
2019-02-15T08:35:58.978Z,36.50
2019-02-15T08:38:29.250Z,37.50
2019-02-15T08:40:59.525Z,36.05
2019-02-15T08:43:29.797Z,28.73
2019-02-15T08:46:02.718Z,47.98
2019-02-15T08:48:32.290Z,39.60
2019-02-15T08:51:02.548Z,36.42
2019-02-15T08:53:32.821Z,38.90
2019-02-15T08:56:03.083Z,32.35
2019-02-15T08:58:33.339Z,30.50
2019-02-15T09:01:03.603Z,51.13
2019-02-15T09:03:34.220Z,30.35
2019-02-15T09:06:04.480Z,27.45
2019-02-15T09:08:34.733Z,29.45
2019-02-15T09:11:04.977Z,56.15
2019-02-15T09:13:35.226Z,50.58
2019-02-15T09:16:10.322Z,45.33
2019-02-15T09:18:37.430Z,43.75
2019-02-15T09:21:07.683Z,37.30
2019-02-15T09:23:37.935Z,29.37
2019-02-15T09:26:08.199Z,37.80
2019-02-15T09:28:42.770Z,31.93
2019-02-15T09:31:14.567Z,29.37
2019-02-15T09:33:44.836Z,36.45
2019-02-15T09:36:15.104Z,27.77
2019-02-15T09:38:47.047Z,29.50
2019-02-15T09:41:17.329Z,30.35
2019-02-15T09:43:47.583Z,32.55
2019-02-15T09:46:20.164Z,30.92
2019-02-15T09:48:49.773Z,33.73
2019-02-15T09:51:20.056Z,35.60
2019-02-15T09:53:50.308Z,42.33
2019-02-15T09:56:20.578Z,37.33
2019-02-15T09:58:50.830Z,40.23
2019-02-15T10:01:21.107Z,45.55
2019-02-15T10:03:51.360Z,45.73
2019-02-15T10:06:22.059Z,48.70
2019-02-15T10:08:56.867Z,50.67
2019-02-15T10:11:30.409Z,42.80
2019-02-15T10:14:01.974Z,48.93
2019-02-15T10:16:32.442Z,55.17
2019-02-15T10:19:03.866Z,52.40
2019-02-15T10:21:34.120Z,49.10
2019-02-15T10:24:05.566Z,47.17
2019-02-15T10:26:37.006Z,45.65
2019-02-15T10:29:08.461Z,43.52
2019-02-15T10:31:38.744Z,49.63
2019-02-15T10:34:09.240Z,46.10
2019-02-15T10:36:40.662Z,47.93
2019-02-15T10:39:13.050Z,48.20
2019-02-15T10:41:44.481Z,45.33
2019-02-15T10:44:15.013Z,49.60
2019-02-15T10:46:46.471Z,42.93
2019-02-15T10:49:17.924Z,48.67
2019-02-15T10:51:49.388Z,48.83
2019-02-15T10:54:21.746Z,48.87
2019-02-15T10:56:52.467Z,47.57
2019-02-15T10:59:25.549Z,49.90
2019-02-15T11:01:57.432Z,56.43
2019-02-15T11:04:27.860Z,55.67
2019-02-15T11:06:58.530Z,51.50
2019-02-15T11:09:28.791Z,44.90
2019-02-15T11:11:59.153Z,46.73
2019-02-15T11:14:29.404Z,46.07
2019-02-15T11:16:59.679Z,49.17
2019-02-15T11:19:29.949Z,65.27
2019-02-15T11:22:00.207Z,53.17
2019-02-15T11:24:30.474Z,50.60
2019-02-15T11:27:00.726Z,44.40
2019-02-15T11:29:32.149Z,52.07
2019-02-15T11:32:02.429Z,51.43
2019-02-15T11:34:32.693Z,71.93
2019-02-15T11:37:02.964Z,60.13
2019-02-15T11:39:33.255Z,83.40
2019-02-15T11:42:03.518Z,54.57
2019-02-15T11:44:33.785Z,63.67
2019-02-15T11:47:04.076Z,53.90
2019-02-15T11:49:34.387Z,51.97
2019-02-15T11:52:04.461Z,67.67
2019-02-15T11:54:34.797Z,59.33
2019-02-15T11:57:05.058Z,69.37
2019-02-15T11:59:35.334Z,57.93
2019-02-15T12:02:06.591Z,62.50
2019-02-15T12:04:37.239Z,60.07
2019-02-15T12:07:07.501Z,153.57
2019-02-15T12:09:37.762Z,107.73
2019-02-15T12:12:10.880Z,89.93
2019-02-15T12:14:39.997Z,62.77
2019-02-15T12:17:10.252Z,64.33
2019-02-15T12:19:40.512Z,62.27
2019-02-15T12:22:10.752Z,57.30
2019-02-15T12:24:41.002Z,52.40
2019-02-15T12:27:11.258Z,51.97
2019-02-15T12:29:41.518Z,54.00
2019-02-15T12:32:11.781Z,52.10
2019-02-15T12:34:43.565Z,64.30
2019-02-15T12:37:13.831Z,59.80
2019-02-15T12:39:44.078Z,56.93
2019-02-15T12:42:15.947Z,49.63
2019-02-15T12:44:46.578Z,56.93
2019-02-15T12:47:16.847Z,53.90
2019-02-15T12:49:47.096Z,70.20
2019-02-15T12:52:17.375Z,77.20
2019-02-15T12:54:47.622Z,72.93
2019-02-15T12:57:18.980Z,55.70
2019-02-15T12:59:49.237Z,54.43
2019-02-15T13:02:19.501Z,55.77
2019-02-15T13:04:49.775Z,59.20
2019-02-15T13:07:20.417Z,44.67
2019-02-15T13:09:52.023Z,63.10
2019-02-15T13:12:22.410Z,49.47
2019-02-15T13:14:52.659Z,56.97
2019-02-15T13:17:24.981Z,57.03
2019-02-15T13:19:54.869Z,78.97
2019-02-15T13:22:25.137Z,60.93
2019-02-15T13:24:55.383Z,62.87
2019-02-15T13:27:25.650Z,74.17
2019-02-15T13:29:55.918Z,68.50
2019-02-15T13:32:26.183Z,63.63
2019-02-15T13:34:56.428Z,63.07
2019-02-15T13:37:26.679Z,60.53
2019-02-15T13:39:56.931Z,58.80
2019-02-15T13:42:27.183Z,68.13
2019-02-15T13:44:58.971Z,59.83
2019-02-15T13:47:34.516Z,66.17
2019-02-15T13:50:02.779Z,50.47
2019-02-15T13:52:33.022Z,56.30
2019-02-15T13:55:03.344Z,49.40
2019-02-15T13:57:33.783Z,52.43
2019-02-15T14:00:08.776Z,50.20
2019-02-15T14:02:39.890Z,58.40
2019-02-15T14:05:16.022Z,52.60
2019-02-15T14:07:51.912Z,55.93
2019-02-15T14:10:22.279Z,61.77
2019-02-15T14:12:55.390Z,50.57
2019-02-15T14:15:25.615Z,50.10
2019-02-15T14:17:57.074Z,52.30
2019-02-15T14:20:28.523Z,51.07
2019-02-15T14:22:59.965Z,61.47
2019-02-15T14:25:31.873Z,61.37
2019-02-15T14:28:02.259Z,59.73
2019-02-15T14:30:33.715Z,49.60
2019-02-15T14:33:03.969Z,56.13
2019-02-15T14:35:34.243Z,81.90
2019-02-15T14:38:05.450Z,82.23
2019-02-15T14:40:35.726Z,70.40
2019-02-15T14:43:06.207Z,59.90
2019-02-15T14:45:36.476Z,60.30
2019-02-15T14:48:06.948Z,57.53
2019-02-15T14:50:37.213Z,52.10
2019-02-15T14:53:07.488Z,60.47
2019-02-15T14:55:39.019Z,67.30
2019-02-15T14:58:11.389Z,54.33
2019-02-15T15:00:43.422Z,67.53
2019-02-15T15:03:13.687Z,66.50
2019-02-15T15:05:46.107Z,91.20
2019-02-15T15:08:16.364Z,77.00
2019-02-15T15:10:46.621Z,86.20
2019-02-15T15:13:16.884Z,65.53
2019-02-15T15:15:47.130Z,93.30
2019-02-15T15:18:17.490Z,129.40
2019-02-15T15:20:48.916Z,69.80
2019-02-15T15:23:19.585Z,79.77
2019-02-15T15:25:53.159Z,89.67
2019-02-15T15:28:24.805Z,181.53
2019-02-15T15:30:55.077Z,147.17
2019-02-15T15:33:25.340Z,253.47
2019-02-15T15:35:56.785Z,253.67
2019-02-15T15:38:28.688Z,230.87
2019-02-15T15:41:05.336Z,124.03
2019-02-15T15:43:44.579Z,175.37
2019-02-15T15:46:16.024Z,252.13
2019-02-15T15:48:47.472Z,158.33
2019-02-15T15:51:20.761Z,120.53
2019-02-15T15:53:52.215Z,117.63
2019-02-15T15:56:23.702Z,94.40
2019-02-15T15:58:56.163Z,101.37
2019-02-15T16:01:26.603Z,66.67
2019-02-15T16:03:58.055Z,73.37
2019-02-15T16:06:29.497Z,69.60
2019-02-15T16:08:59.767Z,84.27
2019-02-15T16:11:32.446Z,83.13
2019-02-15T16:14:04.627Z,75.80
2019-02-15T16:16:39.610Z,67.37
2019-02-15T16:19:09.995Z,88.77
2019-02-15T16:21:40.348Z,83.70
2019-02-15T16:24:12.742Z,110.13
2019-02-15T16:26:42.652Z,77.80
2019-02-15T16:29:14.025Z,88.37
2019-02-15T16:31:44.631Z,102.27
2019-02-15T16:34:17.851Z,93.57
2019-02-15T16:36:49.175Z,88.83
2019-02-15T16:39:23.853Z,96.17
2019-02-15T16:41:58.239Z,95.07
2019-02-15T16:44:31.912Z,98.47
2019-02-15T16:47:02.404Z,135.00
2019-02-15T16:49:37.331Z,106.73
2019-02-15T16:52:08.830Z,108.07
2019-02-15T16:54:42.130Z,93.90
2019-02-15T16:57:15.790Z,97.60
2019-02-15T16:59:46.305Z,82.70
2019-02-15T17:02:17.442Z,83.60
2019-02-15T17:04:48.154Z,91.57
2019-02-15T17:07:18.453Z,88.27
2019-02-15T17:09:48.734Z,90.77
2019-02-15T17:12:19.020Z,82.83
2019-02-15T17:14:49.425Z,99.17
2019-02-15T17:17:21.480Z,90.00
2019-02-15T17:19:52.939Z,91.70
2019-02-15T17:22:24.448Z,88.87
2019-02-15T17:24:55.860Z,97.80
2019-02-15T17:27:27.297Z,84.17
2019-02-15T17:29:59.654Z,84.53
2019-02-15T17:32:30.208Z,92.67
2019-02-15T17:35:01.981Z,94.03
2019-02-15T17:37:37.760Z,82.23
2019-02-15T17:40:13.654Z,88.10
2019-02-15T17:42:44.052Z,93.37
2019-02-15T17:45:14.555Z,96.63
2019-02-15T17:47:45.958Z,84.90
2019-02-15T17:50:20.164Z,87.33
2019-02-15T17:52:51.659Z,97.90
2019-02-15T17:55:23.139Z,92.43
2019-02-15T17:57:54.963Z,110.77
2019-02-15T18:00:29.824Z,122.07
2019-02-15T18:03:02.256Z,95.70
2019-02-15T18:05:33.833Z,125.27
2019-02-15T18:08:05.296Z,109.20
2019-02-15T18:10:36.739Z,111.63
2019-02-15T18:13:08.319Z,115.87
2019-02-15T18:15:38.590Z,113.10
2019-02-15T18:18:10.059Z,116.17
2019-02-15T18:20:40.394Z,107.63
2019-02-15T18:23:10.667Z,97.43
2019-02-15T18:25:42.057Z,102.03
2019-02-15T18:28:15.569Z,105.67
2019-02-15T18:30:45.891Z,97.80
2019-02-15T18:33:16.176Z,82.53
2019-02-15T18:35:46.462Z,118.33
2019-02-15T18:38:16.763Z,104.30
2019-02-15T18:40:48.869Z,94.00
2019-02-15T18:43:20.374Z,86.13
2019-02-15T18:45:50.662Z,83.53
2019-02-15T18:48:23.503Z,82.40
2019-02-15T18:50:53.785Z,76.13
2019-02-15T18:53:26.313Z,86.13
2019-02-15T18:55:57.240Z,91.00
2019-02-15T18:58:27.506Z,95.27
2019-02-15T19:00:57.789Z,80.83
2019-02-15T19:03:38.155Z,81.67
2019-02-15T19:06:10.540Z,125.17
2019-02-15T19:08:56.629Z,92.57
2019-02-15T19:11:27.025Z,93.23
2019-02-15T19:13:57.799Z,90.00
2019-02-15T19:16:34.506Z,114.97
2019-02-15T19:19:12.540Z,135.47
2019-02-15T19:21:48.130Z,113.77
2019-02-15T19:24:21.424Z,123.50
2019-02-15T19:26:54.060Z,114.63
2019-02-15T19:29:28.288Z,112.80
2019-02-15T19:32:00.159Z,111.97
2019-02-15T19:34:30.529Z,101.80
2019-02-15T19:37:02.363Z,110.53
2019-02-15T19:39:32.703Z,115.80
2019-02-15T19:42:05.717Z,138.17
2019-02-15T19:44:36.232Z,124.90
2019-02-15T19:47:06.554Z,131.57
2019-02-15T19:49:43.513Z,164.20
2019-02-15T19:52:15.570Z,158.30
2019-02-15T19:54:47.495Z,148.37
2019-02-15T19:57:19.174Z,153.40
2019-02-15T20:00:06.605Z,144.87
2019-02-15T20:02:46.156Z,136.57
2019-02-15T20:05:17.025Z,166.87
2019-02-15T20:07:50.813Z,152.07
2019-02-15T20:10:23.310Z,141.90
2019-02-15T20:12:54.907Z,152.83
2019-02-15T20:15:27.117Z,129.00
2019-02-15T20:17:57.878Z,109.43
2019-02-15T20:20:29.895Z,113.37
2019-02-15T20:23:00.683Z,99.57
2019-02-15T20:25:31.030Z,92.73
2019-02-15T20:28:01.318Z,101.60
2019-02-15T20:30:31.674Z,99.37
2019-02-15T20:33:04.965Z,111.13
2019-02-15T20:35:36.138Z,126.73
2019-02-15T20:38:08.916Z,122.57
2019-02-15T20:40:39.466Z,100.70
2019-02-15T20:43:10.627Z,114.10
2019-02-15T20:45:43.536Z,95.27
2019-02-15T20:48:15.000Z,91.60
2019-02-15T20:50:46.934Z,98.60
2019-02-15T20:53:20.830Z,92.67
2019-02-15T20:55:54.627Z,125.10
2019-02-15T20:58:26.692Z,104.00
2019-02-15T21:00:58.199Z,137.30
2019-02-15T21:03:31.389Z,198.07
2019-02-15T21:06:02.819Z,183.73
2019-02-15T21:08:33.116Z,198.40
2019-02-15T21:11:05.658Z,145.63
2019-02-15T21:13:35.942Z,136.90
2019-02-15T21:16:06.457Z,134.03
2019-02-15T21:18:38.584Z,120.07
2019-02-15T21:21:08.863Z,92.27
2019-02-15T21:23:42.288Z,83.97
2019-02-15T21:26:26.978Z,83.03
2019-02-15T21:28:57.331Z,97.70
2019-02-15T21:31:27.607Z,107.83
2019-02-15T21:33:58.194Z,81.27
2019-02-15T21:36:28.459Z,77.30
2019-02-15T21:39:00.848Z,120.17
2019-02-15T21:41:32.728Z,67.47
2019-02-15T21:44:03.017Z,75.13
2019-02-15T21:46:33.268Z,59.90
2019-02-15T21:49:05.113Z,60.23
2019-02-15T21:51:37.775Z,56.67
2019-02-15T21:54:08.345Z,59.47
2019-02-15T21:56:41.105Z,70.53
2019-02-15T21:59:11.387Z,63.67
2019-02-15T22:01:41.653Z,61.20
2019-02-15T22:04:11.927Z,58.70
2019-02-15T22:06:44.081Z,54.57
2019-02-15T22:09:15.522Z,50.40
2019-02-15T22:11:45.771Z,43.80
2019-02-15T22:14:16.059Z,44.80
2019-02-15T22:16:46.315Z,51.50
2019-02-15T22:19:16.625Z,74.47
2019-02-15T22:21:46.898Z,78.97
2019-02-15T22:24:17.190Z,78.17
2019-02-15T22:26:47.446Z,83.43
2019-02-15T22:29:17.745Z,60.87
2019-02-15T22:31:48.082Z,58.43
2019-02-15T22:34:18.314Z,70.83
2019-02-15T22:36:50.110Z,68.40
2019-02-15T22:39:21.241Z,74.37
2019-02-15T22:41:51.505Z,70.60
2019-02-15T22:44:21.776Z,72.23
2019-02-15T22:46:52.039Z,65.73
2019-02-15T22:49:22.292Z,65.63
2019-02-15T22:51:52.551Z,72.23
2019-02-15T22:54:22.805Z,78.90
2019-02-15T22:56:53.129Z,70.07
2019-02-15T22:59:23.324Z,59.00
2019-02-15T23:01:53.585Z,62.63
2019-02-15T23:04:23.844Z,52.37
2019-02-15T23:06:54.104Z,59.43
2019-02-15T23:09:25.250Z,49.13
2019-02-15T23:11:55.526Z,42.70
2019-02-15T23:14:25.779Z,31.83
2019-02-15T23:16:56.060Z,38.53
2019-02-15T23:19:26.321Z,57.27
2019-02-15T23:21:56.588Z,38.77
2019-02-15T23:24:26.864Z,37.67
2019-02-15T23:26:57.131Z,39.63
2019-02-15T23:29:27.396Z,32.87
2019-02-15T23:31:57.654Z,36.80
2019-02-15T23:34:27.926Z,37.40
2019-02-15T23:36:58.183Z,35.07
2019-02-15T23:39:29.334Z,35.80
2019-02-15T23:41:59.597Z,29.80
2019-02-15T23:44:30.539Z,35.10
2019-02-15T23:47:00.800Z,37.77
2019-02-15T23:49:31.087Z,28.63
2019-02-15T23:52:01.345Z,35.13
2019-02-15T23:54:31.633Z,32.60
2019-02-15T23:57:01.887Z,31.10
2019-02-15T23:59:32.157Z,31.47
